createdAt,value
2017-06-03T00:01:56.109Z,20.82
2017-06-03T00:04:23.649Z,21.07
2017-06-03T00:06:51.213Z,21.23
2017-06-03T00:09:18.792Z,21.27
2017-06-03T00:11:46.333Z,21.27
2017-06-03T00:14:13.875Z,21.27
2017-06-03T00:16:41.450Z,21.42
2017-06-03T00:19:08.986Z,21.23
2017-06-03T00:21:36.537Z,21.12
2017-06-03T00:24:04.120Z,20.90
2017-06-03T00:26:31.690Z,20.85
2017-06-03T00:28:59.229Z,20.84
2017-06-03T00:31:26.826Z,20.96
2017-06-03T00:33:54.364Z,20.67
2017-06-03T00:36:21.901Z,20.54
2017-06-03T00:38:49.464Z,20.72
2017-06-03T00:41:16.999Z,20.96
2017-06-03T00:43:44.529Z,21.11
2017-06-03T00:46:12.098Z,20.85
2017-06-03T00:48:39.645Z,21.05
2017-06-03T00:51:07.193Z,21.17
2017-06-03T00:53:34.786Z,21.26
2017-06-03T00:56:02.324Z,21.40
2017-06-03T00:58:29.866Z,21.24
2017-06-03T01:00:57.945Z,20.90
2017-06-03T01:03:25.479Z,20.90
2017-06-03T01:05:53.017Z,20.82
2017-06-03T01:08:20.601Z,20.80
2017-06-03T01:10:48.150Z,20.90
2017-06-03T01:13:15.685Z,21.00
2017-06-03T01:15:43.241Z,21.06
2017-06-03T01:18:10.774Z,21.19
2017-06-03T01:20:38.313Z,21.22
2017-06-03T01:23:05.878Z,21.31
2017-06-03T01:25:33.415Z,21.42
2017-06-03T01:28:00.942Z,21.11
2017-06-03T01:30:28.521Z,20.97
2017-06-03T01:32:56.078Z,21.04
2017-06-03T01:35:23.655Z,20.94
2017-06-03T01:37:51.229Z,21.16
2017-06-03T01:40:18.760Z,21.08
2017-06-03T01:42:46.288Z,21.19
2017-06-03T01:45:13.862Z,21.07
2017-06-03T01:47:41.426Z,21.30
2017-06-03T01:50:08.972Z,21.17
2017-06-03T01:52:36.590Z,21.06
2017-06-03T01:55:04.128Z,21.29
2017-06-03T01:57:31.661Z,21.22
2017-06-03T01:59:59.242Z,21.43
2017-06-03T02:02:26.821Z,21.47
2017-06-03T02:04:54.361Z,21.11
2017-06-03T02:07:21.893Z,21.19
2017-06-03T02:09:49.461Z,21.53
2017-06-03T02:12:16.996Z,21.83
2017-06-03T02:14:44.537Z,21.98
2017-06-03T02:17:12.104Z,22.06
2017-06-03T02:19:39.629Z,22.02
2017-06-03T02:22:07.178Z,20.95
2017-06-03T02:24:34.755Z,21.22
2017-06-03T02:27:02.302Z,21.37
2017-06-03T02:29:29.845Z,21.10
2017-06-03T02:31:57.418Z,20.31
2017-06-03T02:34:24.958Z,20.01
2017-06-03T02:36:52.502Z,19.76
2017-06-03T02:39:20.073Z,19.76
2017-06-03T02:41:47.610Z,19.85
2017-06-03T02:44:15.159Z,19.77
2017-06-03T02:46:42.754Z,20.25
2017-06-03T02:49:10.294Z,20.46
2017-06-03T02:51:37.837Z,19.98
2017-06-03T02:54:05.407Z,19.56
2017-06-03T02:56:32.941Z,19.52
2017-06-03T02:59:00.479Z,19.63
2017-06-03T03:01:28.066Z,20.18
2017-06-03T03:03:55.651Z,20.66
2017-06-03T03:06:23.196Z,20.44
2017-06-03T03:08:50.774Z,20.12
2017-06-03T03:11:18.333Z,19.84
2017-06-03T03:13:45.880Z,19.98
2017-06-03T03:16:13.460Z,20.28
2017-06-03T03:18:41.003Z,20.46
2017-06-03T03:21:08.550Z,20.44
2017-06-03T03:23:36.151Z,20.57
2017-06-03T03:26:03.693Z,20.81
2017-06-03T03:28:31.242Z,21.03
2017-06-03T03:30:58.816Z,21.01
2017-06-03T03:33:26.400Z,21.03
2017-06-03T03:35:53.941Z,21.19
2017-06-03T03:38:21.522Z,21.14
2017-06-03T03:40:49.071Z,21.33
2017-06-03T03:43:16.615Z,21.28
2017-06-03T03:45:44.219Z,21.32
2017-06-03T03:48:11.778Z,21.44
2017-06-03T03:50:39.309Z,21.13
2017-06-03T03:53:06.895Z,21.33
2017-06-03T03:55:34.435Z,21.03
2017-06-03T03:58:01.999Z,21.38
2017-06-03T04:00:29.590Z,21.38
2017-06-03T04:02:57.134Z,21.37
2017-06-03T04:05:24.673Z,21.39
2017-06-03T04:07:52.259Z,21.48
2017-06-03T04:10:19.794Z,21.63
2017-06-03T04:12:47.350Z,21.42
2017-06-03T04:15:15.018Z,21.07
2017-06-03T04:17:42.557Z,20.90
2017-06-03T04:20:10.095Z,20.99
2017-06-03T04:22:37.666Z,20.96
2017-06-03T04:25:05.223Z,21.11
2017-06-03T04:27:32.758Z,20.85
2017-06-03T04:30:00.701Z,20.74
2017-06-03T04:32:28.318Z,20.57
2017-06-03T04:34:55.849Z,20.89
2017-06-03T04:37:23.390Z,21.19
2017-06-03T04:39:50.969Z,21.38
2017-06-03T04:42:18.601Z,21.33
2017-06-03T04:44:46.135Z,21.08
2017-06-03T04:47:49.361Z,21.09
2017-06-03T04:50:18.225Z,21.25
2017-06-03T04:52:45.801Z,20.98
2017-06-03T04:55:13.418Z,21.34
2017-06-03T04:57:40.953Z,21.08
2017-06-03T05:00:08.630Z,21.24
2017-06-03T05:02:36.209Z,20.86
2017-06-03T05:05:03.765Z,21.33
2017-06-03T05:07:31.348Z,21.23
2017-06-03T05:09:58.879Z,21.73
2017-06-03T05:12:26.417Z,21.42
2017-06-03T05:14:53.990Z,22.06
2017-06-03T05:17:21.526Z,22.28
2017-06-03T05:19:49.058Z,22.03
2017-06-03T05:22:16.637Z,22.02
2017-06-03T05:24:44.174Z,21.95
2017-06-03T05:27:11.707Z,22.77
2017-06-03T05:29:39.301Z,23.19
2017-06-03T05:32:06.974Z,23.05
2017-06-03T05:34:34.981Z,23.34
2017-06-03T05:37:02.529Z,22.97
2017-06-03T05:39:30.112Z,23.17
2017-06-03T05:41:57.640Z,23.09
2017-06-03T05:44:25.584Z,22.56
2017-06-03T05:46:53.171Z,22.79
2017-06-03T05:49:20.706Z,23.41
2017-06-03T05:51:48.243Z,23.84
2017-06-03T05:54:15.816Z,24.18
2017-06-03T05:56:43.367Z,23.84
2017-06-03T05:59:10.915Z,23.58
2017-06-03T06:01:38.480Z,23.95
2017-06-03T06:04:06.061Z,23.94
2017-06-03T06:06:33.602Z,23.75
2017-06-03T06:09:01.194Z,23.30
2017-06-03T06:11:29.089Z,23.70
2017-06-03T06:13:56.651Z,23.52
2017-06-03T06:16:24.295Z,23.77
2017-06-03T06:18:51.834Z,23.96
2017-06-03T06:21:19.397Z,23.71
2017-06-03T06:23:46.969Z,23.24
2017-06-03T06:26:14.505Z,23.42
2017-06-03T06:28:42.061Z,23.99
2017-06-03T06:31:09.649Z,24.48
2017-06-03T06:33:37.197Z,24.18
2017-06-03T06:36:04.742Z,24.24
2017-06-03T06:38:32.324Z,24.18
2017-06-03T06:40:59.865Z,24.11
2017-06-03T06:43:27.405Z,24.40
2017-06-03T06:45:54.992Z,25.01
2017-06-03T06:48:22.572Z,25.45
2017-06-03T06:50:50.218Z,25.04
2017-06-03T06:53:17.827Z,25.33
2017-06-03T06:55:46.863Z,24.74
2017-06-03T06:58:14.526Z,24.90
2017-06-03T07:00:42.171Z,25.58
2017-06-03T07:03:11.194Z,25.65
2017-06-03T07:05:38.756Z,25.90
2017-06-03T07:08:06.607Z,26.11
2017-06-03T07:10:34.768Z,26.39
2017-06-03T07:13:03.148Z,26.57
2017-06-03T07:15:31.162Z,26.02
2017-06-03T07:17:59.001Z,25.41
2017-06-03T07:20:26.646Z,25.57
2017-06-03T07:22:56.861Z,25.88
2017-06-03T07:25:26.248Z,26.26
2017-06-03T07:27:53.982Z,25.48
2017-06-03T07:30:23.290Z,25.14
2017-06-03T07:32:52.297Z,25.26
2017-06-03T07:35:22.075Z,25.91
2017-06-03T07:37:50.653Z,26.02
2017-06-03T07:40:18.547Z,25.97
2017-06-03T07:42:46.143Z,25.88
2017-06-03T07:45:13.983Z,26.23
2017-06-03T07:47:42.773Z,26.22
2017-06-03T07:50:11.143Z,25.79
2017-06-03T07:52:44.711Z,26.21
2017-06-03T07:55:13.032Z,26.59
2017-06-03T07:57:42.283Z,26.15
2017-06-03T08:00:13.376Z,26.58
2017-06-03T08:02:43.524Z,26.92
2017-06-03T08:05:11.993Z,26.73
2017-06-03T08:07:40.362Z,26.16
2017-06-03T08:10:07.909Z,26.22
2017-06-03T08:12:35.471Z,25.76
2017-06-03T08:15:04.046Z,26.25
2017-06-03T08:17:31.593Z,26.54
2017-06-03T08:19:59.162Z,26.61
2017-06-03T08:22:26.750Z,26.40
2017-06-03T08:24:54.285Z,26.86
2017-06-03T08:27:22.010Z,27.22
2017-06-03T08:29:50.004Z,26.34
2017-06-03T08:32:17.759Z,26.64
2017-06-03T08:34:45.468Z,26.76
2017-06-03T08:37:13.304Z,26.88
2017-06-03T08:39:41.316Z,26.77
2017-06-03T08:42:08.951Z,26.98
2017-06-03T08:44:36.570Z,27.04
2017-06-03T08:47:04.179Z,27.10
2017-06-03T08:49:31.755Z,27.39
2017-06-03T08:51:59.744Z,27.29
2017-06-03T08:54:27.462Z,27.36
2017-06-03T08:56:55.118Z,27.55
2017-06-03T08:59:22.692Z,27.67
2017-06-03T09:01:50.558Z,27.79
2017-06-03T09:04:18.234Z,27.75
2017-06-03T09:06:45.811Z,27.50
2017-06-03T09:09:13.394Z,27.70
2017-06-03T09:11:45.090Z,27.66
2017-06-03T09:14:13.624Z,27.85
2017-06-03T09:19:18.238Z,27.99
2017-06-03T09:21:45.799Z,28.27
2017-06-03T09:24:13.385Z,28.36
2017-06-03T09:26:40.989Z,28.55
2017-06-03T09:29:08.557Z,28.48
2017-06-03T09:31:37.256Z,28.42
2017-06-03T09:34:04.792Z,28.40
2017-06-03T09:36:32.347Z,28.55
2017-06-03T09:38:59.994Z,28.73
2017-06-03T09:41:27.535Z,28.82
2017-06-03T09:43:55.080Z,28.73
2017-06-03T09:46:22.673Z,28.70
2017-06-03T09:48:53.027Z,28.89
2017-06-03T09:51:20.803Z,29.14
2017-06-03T09:53:48.398Z,29.22
2017-06-03T09:56:15.959Z,29.09
2017-06-03T09:58:43.518Z,29.01
2017-06-03T10:01:13.807Z,26.75
2017-06-03T10:03:41.455Z,29.32
2017-06-03T10:06:08.997Z,29.33
2017-06-03T10:08:36.558Z,28.82
2017-06-03T10:11:04.104Z,28.60
2017-06-03T10:13:31.639Z,29.24
2017-06-03T10:15:59.238Z,29.57
2017-06-03T10:18:26.775Z,29.70
2017-06-03T10:21:26.049Z,29.52
2017-06-03T10:23:53.585Z,29.70
2017-06-03T10:26:21.118Z,29.63
2017-06-03T10:28:48.690Z,29.67
2017-06-03T10:31:16.290Z,29.64
2017-06-03T10:33:43.826Z,29.60
2017-06-03T10:36:11.370Z,29.61
2017-06-03T10:38:38.973Z,29.57
2017-06-03T10:41:06.540Z,29.74
2017-06-03T10:43:34.104Z,29.84
2017-06-03T10:46:01.680Z,29.51
2017-06-03T10:48:29.208Z,29.58
2017-06-03T10:50:56.831Z,29.72
2017-06-03T10:53:24.412Z,29.98
2017-06-03T10:55:51.952Z,29.99
2017-06-03T10:58:19.529Z,30.18
2017-06-03T11:00:47.170Z,30.12
2017-06-03T11:03:14.706Z,29.98
2017-06-03T11:05:42.290Z,29.78
2017-06-03T11:08:09.860Z,30.22
2017-06-03T11:10:37.598Z,30.42
2017-06-03T11:13:05.133Z,30.40
2017-06-03T11:15:32.705Z,30.34
2017-06-03T11:18:00.257Z,30.00
2017-06-03T11:20:27.860Z,30.03
2017-06-03T11:22:55.434Z,30.28
2017-06-03T11:54:28.887Z,29.97
2017-06-03T11:56:56.461Z,30.24
2017-06-03T11:59:23.988Z,30.34
2017-06-03T12:01:51.557Z,30.49
2017-06-03T12:04:19.111Z,30.52
2017-06-03T12:06:46.642Z,29.61
2017-06-03T12:09:14.217Z,29.72
2017-06-03T12:11:41.760Z,30.27
2017-06-03T12:14:09.298Z,30.54
2017-06-03T12:16:37.017Z,30.31
2017-06-03T12:19:04.551Z,30.41
2017-06-03T12:21:32.483Z,30.62
2017-06-03T12:24:00.058Z,30.71
2017-06-03T12:26:27.953Z,30.81
2017-06-03T12:28:55.500Z,30.85
2017-06-03T12:31:23.072Z,30.64
2017-06-03T12:33:50.610Z,30.59
2017-06-03T12:36:18.139Z,30.70
2017-06-03T12:38:45.717Z,30.56
2017-06-03T12:41:13.256Z,30.62
2017-06-03T12:43:40.803Z,30.63
2017-06-03T12:46:08.377Z,30.48
2017-06-03T12:48:35.912Z,30.49
2017-06-03T12:51:03.463Z,30.34
2017-06-03T12:53:31.911Z,30.43
2017-06-03T12:55:59.452Z,30.64
2017-06-03T12:58:26.984Z,30.52
2017-06-03T13:00:54.574Z,30.76
2017-06-03T13:03:22.137Z,30.44
2017-06-03T13:05:49.675Z,30.27
2017-06-03T13:08:17.282Z,30.47
2017-06-03T13:10:44.811Z,29.66
2017-06-03T13:13:12.351Z,29.98
2017-06-03T13:15:39.953Z,29.91
2017-06-03T13:18:07.473Z,29.39
2017-06-03T13:20:35.019Z,28.43
2017-06-03T13:23:02.602Z,28.58
2017-06-03T13:25:30.196Z,28.45
2017-06-03T13:27:57.743Z,28.08
2017-06-03T13:30:25.519Z,28.47
2017-06-03T13:32:54.442Z,28.38
2017-06-03T13:35:24.181Z,28.18
2017-06-03T13:37:53.638Z,28.11
2017-06-03T13:40:22.845Z,28.09
2017-06-03T13:42:51.222Z,29.01
2017-06-03T13:45:20.633Z,29.38
2017-06-03T13:47:49.947Z,29.72
2017-06-03T13:50:19.511Z,29.78
2017-06-03T13:52:49.023Z,29.75
2017-06-03T13:55:18.479Z,30.04
2017-06-03T13:57:46.057Z,29.94
2017-06-03T14:00:13.855Z,30.03
2017-06-03T14:02:43.161Z,29.97
2017-06-03T14:05:16.173Z,29.86
2017-06-03T14:07:43.797Z,30.02
2017-06-03T14:10:11.350Z,29.87
2017-06-03T14:12:39.485Z,29.23
2017-06-03T14:15:08.070Z,28.19
2017-06-03T14:17:36.462Z,27.57
2017-06-03T14:20:04.089Z,27.28
2017-06-03T14:22:31.618Z,27.07
2017-06-03T14:24:59.170Z,27.40
2017-06-03T14:27:26.759Z,27.23
2017-06-03T14:29:54.305Z,27.15
2017-06-03T14:32:21.885Z,27.32
2017-06-03T14:34:49.490Z,27.02
2017-06-03T14:37:17.773Z,26.47
2017-06-03T14:39:45.341Z,26.52
2017-06-03T14:42:12.871Z,26.44
2017-06-03T14:44:40.410Z,26.30
2017-06-03T14:47:08.014Z,26.43
2017-06-03T14:49:35.546Z,26.24
2017-06-03T14:52:03.102Z,26.15
2017-06-03T14:54:30.707Z,26.14
2017-06-03T14:56:58.453Z,26.08
2017-06-03T14:59:26.616Z,25.44
2017-06-03T15:01:55.096Z,25.30
2017-06-03T15:04:22.962Z,25.35
2017-06-03T15:06:50.543Z,25.24
2017-06-03T15:09:18.133Z,25.48
2017-06-03T15:11:46.336Z,25.34
2017-06-03T15:14:14.115Z,25.37
2017-06-03T15:16:41.928Z,25.41
2017-06-03T15:19:09.475Z,25.25
2017-06-03T15:21:37.009Z,25.27
2017-06-03T15:24:04.647Z,24.97
2017-06-03T15:26:34.691Z,24.65
2017-06-03T15:29:03.132Z,24.56
2017-06-03T15:31:31.166Z,24.09
2017-06-03T15:33:59.546Z,24.03
2017-06-03T15:36:27.102Z,23.63
2017-06-03T15:38:54.699Z,23.42
2017-06-03T15:41:22.279Z,23.45
2017-06-03T15:43:50.237Z,23.05
2017-06-03T15:46:18.439Z,22.92
2017-06-03T15:48:46.366Z,23.17
2017-06-03T15:51:14.533Z,23.09
2017-06-03T15:53:42.248Z,23.12
2017-06-03T15:56:10.215Z,23.24
2017-06-03T15:58:37.858Z,23.02
2017-06-03T16:01:05.646Z,23.01
2017-06-03T16:03:33.190Z,23.00
2017-06-03T16:06:00.810Z,22.93
2017-06-03T16:08:28.578Z,22.72
2017-06-03T16:10:56.127Z,22.64
2017-06-03T16:13:23.773Z,22.72
2017-06-03T16:15:51.351Z,22.66
2017-06-03T16:18:19.047Z,22.67
2017-06-03T16:20:46.725Z,22.67
2017-06-03T16:23:14.908Z,22.97
2017-06-03T16:25:42.828Z,22.63
2017-06-03T16:28:11.085Z,22.41
2017-06-03T16:30:38.668Z,22.35
2017-06-03T16:33:06.222Z,22.35
2017-06-03T16:35:33.845Z,22.29
2017-06-03T16:38:01.420Z,22.33
2017-06-03T16:40:29.237Z,22.31
2017-06-03T16:42:56.859Z,22.39
2017-06-03T16:45:25.709Z,22.41
2017-06-03T16:47:53.267Z,22.37
2017-06-03T16:50:21.765Z,22.49
2017-06-03T16:52:52.235Z,22.37
2017-06-03T16:55:20.002Z,22.26
2017-06-03T16:57:47.821Z,22.22
2017-06-03T17:00:16.254Z,22.05
2017-06-03T17:02:43.803Z,22.25
2017-06-03T17:05:11.351Z,22.41
2017-06-03T17:07:38.974Z,22.33
2017-06-03T17:10:06.888Z,22.31
2017-06-03T17:12:34.431Z,22.03
2017-06-03T17:15:02.009Z,22.08
2017-06-03T17:17:29.666Z,21.93
2017-06-03T17:20:00.824Z,21.99
2017-06-03T17:22:30.782Z,21.93
2017-06-03T17:25:00.481Z,22.05
2017-06-03T17:27:31.398Z,22.07
2017-06-03T17:30:02.874Z,22.11
2017-06-03T17:32:37.336Z,22.11
2017-06-03T17:35:07.984Z,22.12
2017-06-03T17:37:39.666Z,21.86
2017-06-03T17:40:09.439Z,22.09
2017-06-03T17:42:39.428Z,22.00
2017-06-03T17:45:09.359Z,21.95
2017-06-03T17:47:39.736Z,21.92
2017-06-03T17:50:09.549Z,21.72
2017-06-03T17:52:46.289Z,21.46
2017-06-03T17:55:16.135Z,21.64
2017-06-03T17:57:46.605Z,21.64
2017-06-03T18:00:17.778Z,21.74
2017-06-03T18:02:49.026Z,21.76
2017-06-03T18:05:19.184Z,21.52
2017-06-03T18:07:48.717Z,21.67
2017-06-03T18:10:18.213Z,21.64
2017-06-03T18:12:45.915Z,21.64
2017-06-03T18:15:13.463Z,21.35
2017-06-03T18:17:40.997Z,21.35
2017-06-03T18:20:08.562Z,21.29
2017-06-03T18:22:36.516Z,21.12
2017-06-03T18:25:19.001Z,20.96
2017-06-03T18:27:46.535Z,21.06
2017-06-03T18:30:14.928Z,21.16
2017-06-03T18:32:42.523Z,21.18
2017-06-03T18:35:10.065Z,21.28
2017-06-03T18:37:37.704Z,21.21
2017-06-03T18:40:05.240Z,20.94
2017-06-03T18:42:32.809Z,20.85
2017-06-03T18:45:00.416Z,20.97
2017-06-03T18:47:27.963Z,21.13
2017-06-03T18:49:55.515Z,20.94
2017-06-03T18:52:23.099Z,20.99
2017-06-03T18:54:50.701Z,21.02
2017-06-03T18:57:18.242Z,21.19
2017-06-03T18:59:45.845Z,20.97
2017-06-03T19:02:13.430Z,21.14
2017-06-03T19:04:40.969Z,20.95
2017-06-03T19:07:08.509Z,20.85
2017-06-03T19:09:36.085Z,20.75
2017-06-03T19:12:03.650Z,20.84
2017-06-03T19:14:31.187Z,20.72
2017-06-03T19:16:58.765Z,20.74
2017-06-03T19:19:26.297Z,20.78
2017-06-03T19:21:53.852Z,20.75
2017-06-03T19:24:21.446Z,20.71
2017-06-03T19:26:48.995Z,20.71
2017-06-03T19:29:16.531Z,20.82
2017-06-03T19:31:44.171Z,20.75
2017-06-03T19:34:11.735Z,20.32
2017-06-03T19:36:39.275Z,20.95
2017-06-03T19:39:06.862Z,20.72
2017-06-03T19:41:34.758Z,20.78
2017-06-03T19:44:02.297Z,20.68
2017-06-03T19:46:29.938Z,20.65
2017-06-03T19:48:57.483Z,20.70
2017-06-03T19:51:25.026Z,20.71
2017-06-03T19:53:52.646Z,20.67
2017-06-03T19:56:20.211Z,20.61
2017-06-03T19:58:47.894Z,20.70
2017-06-03T20:01:15.513Z,20.74
2017-06-03T20:03:43.067Z,20.69
2017-06-03T20:06:10.656Z,20.60
2017-06-03T20:08:38.229Z,20.50
2017-06-03T20:11:06.082Z,20.53
2017-06-03T20:13:33.652Z,20.38
2017-06-03T20:16:01.251Z,20.33
2017-06-03T20:18:28.797Z,20.42
2017-06-03T20:20:56.402Z,20.38
2017-06-03T20:23:23.989Z,20.31
2017-06-03T20:25:51.535Z,20.38
2017-06-03T20:28:20.498Z,20.34
2017-06-03T20:30:48.105Z,20.32
2017-06-03T20:33:15.661Z,20.35
2017-06-03T20:35:43.210Z,20.37
2017-06-03T20:38:10.796Z,20.39
2017-06-03T20:40:38.343Z,20.33
2017-06-03T20:43:05.885Z,20.31
2017-06-03T20:45:34.127Z,20.22
2017-06-03T20:48:01.930Z,20.11
2017-06-03T20:50:30.869Z,20.17
2017-06-03T20:52:58.797Z,20.20
2017-06-03T20:55:26.576Z,20.34
2017-06-03T20:57:55.820Z,20.18
2017-06-03T21:00:23.806Z,20.10
2017-06-03T21:02:51.878Z,20.17
2017-06-03T21:05:19.971Z,20.14
2017-06-03T21:07:48.156Z,20.08
2017-06-03T21:10:15.795Z,20.04
2017-06-03T21:12:43.340Z,20.07
2017-06-03T21:15:10.946Z,19.84
2017-06-03T21:17:38.514Z,19.83
2017-06-03T21:20:06.055Z,19.78
2017-06-03T21:22:33.650Z,19.68
2017-06-03T21:25:01.189Z,19.62
2017-06-03T21:27:28.733Z,19.58
2017-06-03T21:29:56.327Z,19.75
2017-06-03T21:32:23.934Z,19.62
2017-06-03T21:34:51.474Z,19.39
2017-06-03T21:37:19.018Z,19.41
2017-06-03T21:39:46.622Z,19.50
2017-06-03T21:42:14.158Z,19.58
2017-06-03T21:44:41.704Z,19.63
2017-06-03T21:47:09.277Z,19.68
2017-06-03T21:49:36.813Z,19.42
2017-06-03T21:52:04.355Z,19.25
2017-06-03T21:54:31.954Z,19.32
2017-06-03T21:56:59.523Z,19.25
2017-06-03T21:59:27.060Z,19.16
2017-06-03T22:01:54.633Z,19.38
2017-06-03T22:04:22.182Z,19.52
2017-06-03T22:06:49.742Z,19.39
2017-06-03T22:09:17.403Z,19.37
2017-06-03T22:11:44.941Z,19.55
2017-06-03T22:14:12.478Z,19.46
2017-06-03T22:16:40.053Z,19.37
2017-06-03T22:19:07.598Z,19.23
2017-06-03T22:21:35.141Z,19.38
2017-06-03T22:24:02.725Z,19.26
2017-06-03T22:26:30.293Z,19.03
2017-06-03T22:28:57.902Z,19.19
2017-06-03T22:31:25.489Z,19.26
2017-06-03T22:33:53.045Z,19.23
2017-06-03T22:36:20.597Z,19.22
2017-06-03T22:38:48.173Z,19.22
2017-06-03T22:41:15.716Z,19.33
2017-06-03T22:43:43.294Z,19.37
2017-06-03T22:46:10.869Z,19.49
2017-06-03T22:48:38.429Z,19.35
2017-06-03T22:51:05.978Z,19.42
2017-06-03T22:53:33.569Z,19.22
2017-06-03T22:56:01.447Z,19.14
2017-06-03T22:58:28.986Z,19.30
2017-06-03T23:00:56.566Z,19.25
2017-06-03T23:03:24.109Z,19.43
2017-06-03T23:05:51.655Z,19.49
2017-06-03T23:08:19.234Z,19.39
2017-06-03T23:10:46.779Z,19.18
2017-06-03T23:13:14.325Z,19.00
2017-06-03T23:15:41.897Z,19.01
2017-06-03T23:18:09.428Z,19.01
2017-06-03T23:20:36.971Z,19.04
2017-06-03T23:23:04.545Z,18.90
2017-06-03T23:25:32.150Z,18.95
2017-06-03T23:27:59.992Z,19.00
2017-06-03T23:30:28.548Z,19.01
2017-06-03T23:32:57.001Z,18.96
2017-06-03T23:35:26.168Z,18.84
2017-06-03T23:37:55.806Z,18.93
2017-06-03T23:40:25.206Z,18.81
2017-06-03T23:42:53.816Z,19.11
2017-06-03T23:45:21.438Z,19.03
2017-06-03T23:47:48.977Z,18.91
2017-06-03T23:50:16.520Z,18.84
2017-06-03T23:52:44.117Z,18.87
2017-06-03T23:55:11.668Z,18.86
2017-06-03T23:57:39.207Z,18.91
